sensor_id;sensor_type;location;lat;lon;timestamp;temperature;humidity
12887;DHT22;6511;49.746;6.094;2022-10-31T00:00:30;9.30;99.90
12887;DHT22;6511;49.746;6.094;2022-10-31T00:02:56;9.30;99.90
12887;DHT22;6511;49.746;6.094;2022-10-31T00:05:24;9.30;99.90
12887;DHT22;6511;49.746;6.094;2022-10-31T00:07:54;9.30;99.90
12887;DHT22;6511;49.746;6.094;2022-10-31T00:10:20;9.30;99.90
12887;DHT22;6511;49.746;6.094;2022-10-31T00:12:45;9.40;99.90
12887;DHT22;6511;49.746;6.094;2022-10-31T00:15:11;9.40;99.90
12887;DHT22;6511;49.746;6.094;2022-10-31T00:17:36;9.40;99.90
12887;DHT22;6511;49.746;6.094;2022-10-31T00:20:02;9.50;99.90
12887;DHT22;6511;49.746;6.094;2022-10-31T00:22:28;9.50;99.90
12887;DHT22;6511;49.746;6.094;2022-10-31T00:24:54;9.50;99.90
12887;DHT22;6511;49.746;6.094;2022-10-31T00:27:19;9.50;99.90
12887;DHT22;6511;49.746;6.094;2022-10-31T00:29:45;9.50;99.90
12887;DHT22;6511;49.746;6.094;2022-10-31T00:32:11;9.40;99.90
12887;DHT22;6511;49.746;6.094;2022-10-31T00:34:36;9.30;99.90
12887;DHT22;6511;49.746;6.094;2022-10-31T00:37:02;9.20;99.90
12887;DHT22;6511;49.746;6.094;2022-10-31T00:39:27;9.20;99.90
12887;DHT22;6511;49.746;6.094;2022-10-31T00:41:53;9.20;99.90
12887;DHT22;6511;49.746;6.094;2022-10-31T00:44:19;9.20;99.90
12887;DHT22;6511;49.746;6.094;2022-10-31T00:46:44;9.20;99.90
12887;DHT22;6511;49.746;6.094;2022-10-31T00:49:10;9.30;99.90
12887;DHT22;6511;49.746;6.094;2022-10-31T00:51:36;9.30;99.90
12887;DHT22;6511;49.746;6.094;2022-10-31T00:54:02;9.30;99.90
12887;DHT22;6511;49.746;6.094;2022-10-31T00:56:28;9.40;99.90
12887;DHT22;6511;49.746;6.094;2022-10-31T00:58:54;9.40;99.90
12887;DHT22;6511;49.746;6.094;2022-10-31T01:01:19;9.40;99.90
12887;DHT22;6511;49.746;6.094;2022-10-31T01:03:45;9.40;99.90
12887;DHT22;6511;49.746;6.094;2022-10-31T01:06:12;9.50;99.90
12887;DHT22;6511;49.746;6.094;2022-10-31T01:08:39;9.50;99.90
12887;DHT22;6511;49.746;6.094;2022-10-31T01:11:17;9.60;99.90
12887;DHT22;6511;49.746;6.094;2022-10-31T01:13:44;9.60;99.90
12887;DHT22;6511;49.746;6.094;2022-10-31T01:16:12;9.60;99.90
12887;DHT22;6511;49.746;6.094;2022-10-31T01:18:38;9.70;99.90
12887;DHT22;6511;49.746;6.094;2022-10-31T01:21:07;9.70;99.90
12887;DHT22;6511;49.746;6.094;2022-10-31T01:23:34;9.70;99.90
12887;DHT22;6511;49.746;6.094;2022-10-31T01:28:29;9.80;99.90
12887;DHT22;6511;49.746;6.094;2022-10-31T01:30:55;9.70;99.90
12887;DHT22;6511;49.746;6.094;2022-10-31T01:33:20;9.70;99.90
12887;DHT22;6511;49.746;6.094;2022-10-31T01:35:46;9.60;99.90
12887;DHT22;6511;49.746;6.094;2022-10-31T01:38:12;9.60;99.90
12887;DHT22;6511;49.746;6.094;2022-10-31T01:40:37;9.60;99.90
12887;DHT22;6511;49.746;6.094;2022-10-31T01:43:03;9.50;99.90
12887;DHT22;6511;49.746;6.094;2022-10-31T01:45:28;9.50;99.90
12887;DHT22;6511;49.746;6.094;2022-10-31T01:47:54;9.50;99.90
12887;DHT22;6511;49.746;6.094;2022-10-31T01:50:31;9.50;99.90
12887;DHT22;6511;49.746;6.094;2022-10-31T01:53:00;9.50;99.90
12887;DHT22;6511;49.746;6.094;2022-10-31T01:55:45;9.50;99.90
12887;DHT22;6511;49.746;6.094;2022-10-31T01:58:18;9.50;99.90
12887;DHT22;6511;49.746;6.094;2022-10-31T02:00:47;9.50;99.90
12887;DHT22;6511;49.746;6.094;2022-10-31T02:03:14;9.50;99.90
12887;DHT22;6511;49.746;6.094;2022-10-31T02:05:41;9.50;99.90
12887;DHT22;6511;49.746;6.094;2022-10-31T02:08:10;9.60;99.90
12887;DHT22;6511;49.746;6.094;2022-10-31T02:10:40;9.60;99.90
12887;DHT22;6511;49.746;6.094;2022-10-31T02:13:08;9.60;99.90
12887;DHT22;6511;49.746;6.094;2022-10-31T02:15:35;9.60;99.90
12887;DHT22;6511;49.746;6.094;2022-10-31T04:22:54;9.20;99.90
12887;DHT22;6511;49.746;6.094;2022-10-31T04:25:19;9.20;99.90
12887;DHT22;6511;49.746;6.094;2022-10-31T04:27:45;9.20;99.90
12887;DHT22;6511;49.746;6.094;2022-10-31T04:30:10;9.30;99.90
12887;DHT22;6511;49.746;6.094;2022-10-31T04:32:36;9.30;99.90
12887;DHT22;6511;49.746;6.094;2022-10-31T04:35:02;9.30;99.90
12887;DHT22;6511;49.746;6.094;2022-10-31T04:37:28;9.30;99.90
12887;DHT22;6511;49.746;6.094;2022-10-31T04:39:53;9.30;99.90
12887;DHT22;6511;49.746;6.094;2022-10-31T04:42:19;9.20;99.90
12887;DHT22;6511;49.746;6.094;2022-10-31T04:44:44;9.20;99.90
12887;DHT22;6511;49.746;6.094;2022-10-31T04:47:10;9.20;99.90
12887;DHT22;6511;49.746;6.094;2022-10-31T04:49:36;9.30;99.90
12887;DHT22;6511;49.746;6.094;2022-10-31T04:52:01;9.30;99.90
12887;DHT22;6511;49.746;6.094;2022-10-31T04:54:27;9.30;99.90
12887;DHT22;6511;49.746;6.094;2022-10-31T04:56:52;9.30;99.90
12887;DHT22;6511;49.746;6.094;2022-10-31T04:59:18;9.30;99.90
12887;DHT22;6511;49.746;6.094;2022-10-31T05:01:44;9.30;99.90
12887;DHT22;6511;49.746;6.094;2022-10-31T05:04:09;9.30;99.90
12887;DHT22;6511;49.746;6.094;2022-10-31T05:06:35;9.30;99.90
12887;DHT22;6511;49.746;6.094;2022-10-31T05:09:01;9.30;99.90
12887;DHT22;6511;49.746;6.094;2022-10-31T05:11:26;9.20;99.90
12887;DHT22;6511;49.746;6.094;2022-10-31T05:13:52;9.20;99.90
12887;DHT22;6511;49.746;6.094;2022-10-31T05:16:17;9.10;99.90
12887;DHT22;6511;49.746;6.094;2022-10-31T05:18:43;9.10;99.90
12887;DHT22;6511;49.746;6.094;2022-10-31T05:21:09;9.00;99.90
12887;DHT22;6511;49.746;6.094;2022-10-31T05:23:34;9.00;99.90
12887;DHT22;6511;49.746;6.094;2022-10-31T05:26:00;8.90;99.90
12887;DHT22;6511;49.746;6.094;2022-10-31T05:28:25;8.90;99.90
12887;DHT22;6511;49.746;6.094;2022-10-31T05:30:51;8.90;99.90
12887;DHT22;6511;49.746;6.094;2022-10-31T05:33:17;9.00;99.90
12887;DHT22;6511;49.746;6.094;2022-10-31T05:35:42;9.00;99.90
12887;DHT22;6511;49.746;6.094;2022-10-31T05:38:08;9.00;99.90
12887;DHT22;6511;49.746;6.094;2022-10-31T05:40:34;9.00;99.90
12887;DHT22;6511;49.746;6.094;2022-10-31T05:42:59;9.00;99.90
12887;DHT22;6511;49.746;6.094;2022-10-31T05:45:25;9.00;99.90
12887;DHT22;6511;49.746;6.094;2022-10-31T05:47:56;9.00;99.90
12887;DHT22;6511;49.746;6.094;2022-10-31T05:50:22;9.00;99.90
12887;DHT22;6511;49.746;6.094;2022-10-31T05:52:58;9.00;99.90
12887;DHT22;6511;49.746;6.094;2022-10-31T05:55:24;9.00;99.90
12887;DHT22;6511;49.746;6.094;2022-10-31T05:57:51;8.90;99.90
12887;DHT22;6511;49.746;6.094;2022-10-31T06:00:17;8.80;99.90
12887;DHT22;6511;49.746;6.094;2022-10-31T06:02:43;8.80;99.90
12887;DHT22;6511;49.746;6.094;2022-10-31T06:05:09;8.70;99.90
12887;DHT22;6511;49.746;6.094;2022-10-31T06:07:34;8.70;99.90
12887;DHT22;6511;49.746;6.094;2022-10-31T06:10:02;8.60;99.90
12887;DHT22;6511;49.746;6.094;2022-10-31T06:12:28;8.50;99.90
12887;DHT22;6511;49.746;6.094;2022-10-31T06:14:53;8.40;99.90
12887;DHT22;6511;49.746;6.094;2022-10-31T06:17:19;8.40;99.90
12887;DHT22;6511;49.746;6.094;2022-10-31T06:19:45;8.40;99.90
12887;DHT22;6511;49.746;6.094;2022-10-31T06:22:10;8.50;99.90
12887;DHT22;6511;49.746;6.094;2022-10-31T06:24:39;8.50;99.90
12887;DHT22;6511;49.746;6.094;2022-10-31T06:27:05;8.50;99.90
12887;DHT22;6511;49.746;6.094;2022-10-31T06:29:31;8.60;99.90
12887;DHT22;6511;49.746;6.094;2022-10-31T06:31:57;8.60;99.90
12887;DHT22;6511;49.746;6.094;2022-10-31T06:34:22;8.70;99.90
12887;DHT22;6511;49.746;6.094;2022-10-31T06:36:48;8.70;99.90
12887;DHT22;6511;49.746;6.094;2022-10-31T06:39:14;8.80;99.90
12887;DHT22;6511;49.746;6.094;2022-10-31T06:41:40;8.80;99.90
12887;DHT22;6511;49.746;6.094;2022-10-31T06:44:07;8.80;99.90
12887;DHT22;6511;49.746;6.094;2022-10-31T06:46:33;8.80;99.90
12887;DHT22;6511;49.746;6.094;2022-10-31T06:48:59;8.80;99.90
12887;DHT22;6511;49.746;6.094;2022-10-31T06:51:24;8.90;99.90
12887;DHT22;6511;49.746;6.094;2022-10-31T06:53:50;8.90;99.90
12887;DHT22;6511;49.746;6.094;2022-10-31T06:56:16;8.90;99.90
12887;DHT22;6511;49.746;6.094;2022-10-31T06:58:41;8.90;99.90
12887;DHT22;6511;49.746;6.094;2022-10-31T07:01:07;9.00;99.90
12887;DHT22;6511;49.746;6.094;2022-10-31T07:03:37;9.00;99.90
12887;DHT22;6511;49.746;6.094;2022-10-31T07:06:06;8.90;99.90
12887;DHT22;6511;49.746;6.094;2022-10-31T07:08:35;8.90;99.90
12887;DHT22;6511;49.746;6.094;2022-10-31T07:11:03;9.00;99.90
12887;DHT22;6511;49.746;6.094;2022-10-31T07:13:28;9.00;99.90
12887;DHT22;6511;49.746;6.094;2022-10-31T07:16:05;9.00;99.90
12887;DHT22;6511;49.746;6.094;2022-10-31T07:18:37;9.00;99.90
12887;DHT22;6511;49.746;6.094;2022-10-31T07:21:03;9.00;99.90
12887;DHT22;6511;49.746;6.094;2022-10-31T07:23:29;9.10;99.90
12887;DHT22;6511;49.746;6.094;2022-10-31T07:25:55;9.20;99.90
12887;DHT22;6511;49.746;6.094;2022-10-31T07:28:22;9.20;99.90
12887;DHT22;6511;49.746;6.094;2022-10-31T07:30:54;9.30;99.90
12887;DHT22;6511;49.746;6.094;2022-10-31T07:33:20;9.40;99.90
12887;DHT22;6511;49.746;6.094;2022-10-31T07:35:46;9.60;99.90
12887;DHT22;6511;49.746;6.094;2022-10-31T07:38:13;9.60;99.90
12887;DHT22;6511;49.746;6.094;2022-10-31T07:40:40;9.60;99.90
12887;DHT22;6511;49.746;6.094;2022-10-31T07:43:06;9.70;99.90
12887;DHT22;6511;49.746;6.094;2022-10-31T07:45:32;9.80;99.90
12887;DHT22;6511;49.746;6.094;2022-10-31T07:47:57;9.90;99.90
12887;DHT22;6511;49.746;6.094;2022-10-31T07:50:29;9.90;99.90
12887;DHT22;6511;49.746;6.094;2022-10-31T07:53:09;10.00;99.90
12887;DHT22;6511;49.746;6.094;2022-10-31T07:55:44;10.00;99.90
12887;DHT22;6511;49.746;6.094;2022-10-31T07:58:13;10.10;99.90
12887;DHT22;6511;49.746;6.094;2022-10-31T08:00:41;10.10;99.90
12887;DHT22;6511;49.746;6.094;2022-10-31T08:03:15;10.20;99.90
12887;DHT22;6511;49.746;6.094;2022-10-31T08:05:45;10.30;99.90
12887;DHT22;6511;49.746;6.094;2022-10-31T08:08:11;10.30;99.90
12887;DHT22;6511;49.746;6.094;2022-10-31T08:10:38;10.40;99.90
12887;DHT22;6511;49.746;6.094;2022-10-31T08:13:09;10.50;99.90
12887;DHT22;6511;49.746;6.094;2022-10-31T08:15:35;10.50;99.90
12887;DHT22;6511;49.746;6.094;2022-10-31T08:18:04;10.50;99.90
12887;DHT22;6511;49.746;6.094;2022-10-31T08:20:30;10.50;99.90
12887;DHT22;6511;49.746;6.094;2022-10-31T08:23:01;10.60;99.90
12887;DHT22;6511;49.746;6.094;2022-10-31T08:25:28;10.70;99.90
12887;DHT22;6511;49.746;6.094;2022-10-31T08:27:55;10.80;99.90
12887;DHT22;6511;49.746;6.094;2022-10-31T08:30:23;10.90;99.90
12887;DHT22;6511;49.746;6.094;2022-10-31T08:32:58;11.00;99.90
12887;DHT22;6511;49.746;6.094;2022-10-31T08:35:23;11.10;99.90
12887;DHT22;6511;49.746;6.094;2022-10-31T08:37:55;11.20;99.90
12887;DHT22;6511;49.746;6.094;2022-10-31T08:40:22;11.30;99.90
12887;DHT22;6511;49.746;6.094;2022-10-31T08:43:04;11.40;99.90
12887;DHT22;6511;49.746;6.094;2022-10-31T08:45:32;11.60;99.90
12887;DHT22;6511;49.746;6.094;2022-10-31T08:47:59;11.60;99.90
12887;DHT22;6511;49.746;6.094;2022-10-31T08:50:26;11.70;99.90
12887;DHT22;6511;49.746;6.094;2022-10-31T08:52:52;11.80;99.90
12887;DHT22;6511;49.746;6.094;2022-10-31T08:55:18;11.70;99.90
12887;DHT22;6511;49.746;6.094;2022-10-31T08:57:44;11.70;99.90
12887;DHT22;6511;49.746;6.094;2022-10-31T09:00:10;11.60;99.90
12887;DHT22;6511;49.746;6.094;2022-10-31T09:02:35;11.80;99.90
12887;DHT22;6511;49.746;6.094;2022-10-31T09:05:02;11.90;99.90
12887;DHT22;6511;49.746;6.094;2022-10-31T09:07:31;12.00;99.90
12887;DHT22;6511;49.746;6.094;2022-10-31T09:09:56;12.10;99.90
12887;DHT22;6511;49.746;6.094;2022-10-31T09:12:22;12.20;99.90
12887;DHT22;6511;49.746;6.094;2022-10-31T09:14:49;12.20;99.90
12887;DHT22;6511;49.746;6.094;2022-10-31T09:17:15;12.30;99.90
12887;DHT22;6511;49.746;6.094;2022-10-31T09:19:40;12.30;99.90
12887;DHT22;6511;49.746;6.094;2022-10-31T09:22:06;12.40;99.90
12887;DHT22;6511;49.746;6.094;2022-10-31T09:24:31;12.40;99.90
12887;DHT22;6511;49.746;6.094;2022-10-31T09:26:58;12.50;99.90
12887;DHT22;6511;49.746;6.094;2022-10-31T09:29:24;12.60;99.90
12887;DHT22;6511;49.746;6.094;2022-10-31T09:31:49;12.60;99.90
12887;DHT22;6511;49.746;6.094;2022-10-31T09:34:15;12.80;99.90
12887;DHT22;6511;49.746;6.094;2022-10-31T09:36:41;12.70;99.90
12887;DHT22;6511;49.746;6.094;2022-10-31T09:39:08;12.80;99.90
12887;DHT22;6511;49.746;6.094;2022-10-31T09:44:50;13.00;99.90
12887;DHT22;6511;49.746;6.094;2022-10-31T09:52:22;13.20;99.90
12887;DHT22;6511;49.746;6.094;2022-10-31T09:55:05;13.30;99.90
12887;DHT22;6511;49.746;6.094;2022-10-31T09:57:36;13.40;99.90
12887;DHT22;6511;49.746;6.094;2022-10-31T10:00:07;13.50;99.90
12887;DHT22;6511;49.746;6.094;2022-10-31T10:03:39;13.70;99.90
12887;DHT22;6511;49.746;6.094;2022-10-31T10:08:32;13.90;99.90
12887;DHT22;6511;49.746;6.094;2022-10-31T10:16:21;14.20;99.90
12887;DHT22;6511;49.746;6.094;2022-10-31T10:18:59;14.20;99.90
12887;DHT22;6511;49.746;6.094;2022-10-31T10:21:34;14.40;99.90
12887;DHT22;6511;49.746;6.094;2022-10-31T10:30:00;14.60;99.90
12887;DHT22;6511;49.746;6.094;2022-10-31T10:32:29;14.50;99.90
12887;DHT22;6511;49.746;6.094;2022-10-31T10:35:07;14.40;99.90
12887;DHT22;6511;49.746;6.094;2022-10-31T10:37:39;14.50;99.90
12887;DHT22;6511;49.746;6.094;2022-10-31T10:40:18;14.60;99.90
12887;DHT22;6511;49.746;6.094;2022-10-31T10:59:54;15.20;99.90
12887;DHT22;6511;49.746;6.094;2022-10-31T11:02:23;15.30;99.90
12887;DHT22;6511;49.746;6.094;2022-10-31T11:05:00;15.40;99.90
12887;DHT22;6511;49.746;6.094;2022-10-31T11:07:38;15.40;99.90
12887;DHT22;6511;49.746;6.094;2022-10-31T11:10:05;15.60;99.90
12887;DHT22;6511;49.746;6.094;2022-10-31T11:12:39;15.80;99.90
12887;DHT22;6511;49.746;6.094;2022-10-31T11:15:21;16.00;99.90
12887;DHT22;6511;49.746;6.094;2022-10-31T11:17:50;16.10;99.90
12887;DHT22;6511;49.746;6.094;2022-10-31T11:22:44;16.10;99.90
12887;DHT22;6511;49.746;6.094;2022-10-31T11:27:58;16.30;99.90
12887;DHT22;6511;49.746;6.094;2022-10-31T11:30:23;16.30;99.90
12887;DHT22;6511;49.746;6.094;2022-10-31T11:32:50;16.50;99.90
12887;DHT22;6511;49.746;6.094;2022-10-31T11:35:19;16.50;99.90
12887;DHT22;6511;49.746;6.094;2022-10-31T11:37:47;16.50;99.90
12887;DHT22;6511;49.746;6.094;2022-10-31T11:40:19;16.40;99.90
12887;DHT22;6511;49.746;6.094;2022-10-31T11:42:46;16.40;99.90
12887;DHT22;6511;49.746;6.094;2022-10-31T11:45:35;16.50;99.90
12887;DHT22;6511;49.746;6.094;2022-10-31T11:48:12;16.60;99.90
12887;DHT22;6511;49.746;6.094;2022-10-31T11:50:40;16.60;99.90
12887;DHT22;6511;49.746;6.094;2022-10-31T11:53:16;16.60;99.90
12887;DHT22;6511;49.746;6.094;2022-10-31T11:55:42;16.50;99.90
12887;DHT22;6511;49.746;6.094;2022-10-31T11:58:23;16.60;99.90
12887;DHT22;6511;49.746;6.094;2022-10-31T12:00:54;16.70;99.90
12887;DHT22;6511;49.746;6.094;2022-10-31T12:08:38;16.70;99.90
12887;DHT22;6511;49.746;6.094;2022-10-31T12:16:35;16.90;99.90
12887;DHT22;6511;49.746;6.094;2022-10-31T12:22:24;17.00;99.90
12887;DHT22;6511;49.746;6.094;2022-10-31T12:28:11;17.30;99.90
12887;DHT22;6511;49.746;6.094;2022-10-31T12:58:54;17.90;99.90
12887;DHT22;6511;49.746;6.094;2022-10-31T13:01:36;18.00;99.90
12887;DHT22;6511;49.746;6.094;2022-10-31T13:06:51;18.00;99.90
12887;DHT22;6511;49.746;6.094;2022-10-31T13:09:23;18.00;99.90
12887;DHT22;6511;49.746;6.094;2022-10-31T13:11:56;18.00;99.90
12887;DHT22;6511;49.746;6.094;2022-10-31T13:14:32;18.10;99.90
12887;DHT22;6511;49.746;6.094;2022-10-31T13:17:00;18.20;99.90
12887;DHT22;6511;49.746;6.094;2022-10-31T13:19:42;18.30;99.90
12887;DHT22;6511;49.746;6.094;2022-10-31T13:22:20;18.40;99.90
12887;DHT22;6511;49.746;6.094;2022-10-31T13:27:47;18.70;99.90
12887;DHT22;6511;49.746;6.094;2022-10-31T13:30:21;18.80;99.90
12887;DHT22;6511;49.746;6.094;2022-10-31T13:35:30;19.10;99.90
12887;DHT22;6511;49.746;6.094;2022-10-31T13:43:43;19.00;99.90
12887;DHT22;6511;49.746;6.094;2022-10-31T13:46:44;18.90;99.90
12887;DHT22;6511;49.746;6.094;2022-10-31T13:54:38;18.70;99.90
12887;DHT22;6511;49.746;6.094;2022-10-31T13:57:19;18.70;99.90
12887;DHT22;6511;49.746;6.094;2022-10-31T14:02:48;18.70;99.90
12887;DHT22;6511;49.746;6.094;2022-10-31T14:07:56;18.60;99.90
12887;DHT22;6511;49.746;6.094;2022-10-31T14:10:30;18.60;99.90
12887;DHT22;6511;49.746;6.094;2022-10-31T14:13:13;18.60;99.90
12887;DHT22;6511;49.746;6.094;2022-10-31T14:15:52;18.60;99.90
12887;DHT22;6511;49.746;6.094;2022-10-31T14:20:57;18.70;99.90
12887;DHT22;6511;49.746;6.094;2022-10-31T14:23:39;18.90;99.90
12887;DHT22;6511;49.746;6.094;2022-10-31T14:34:32;19.00;99.90
12887;DHT22;6511;49.746;6.094;2022-10-31T14:50:57;18.30;99.90
12887;DHT22;6511;49.746;6.094;2022-10-31T14:53:39;18.20;99.90
12887;DHT22;6511;49.746;6.094;2022-10-31T14:56:10;18.10;99.90
12887;DHT22;6511;49.746;6.094;2022-10-31T14:58:40;18.10;99.90
12887;DHT22;6511;49.746;6.094;2022-10-31T15:01:26;17.90;99.90
12887;DHT22;6511;49.746;6.094;2022-10-31T15:04:02;18.00;99.90
12887;DHT22;6511;49.746;6.094;2022-10-31T15:06:35;17.90;99.90
12887;DHT22;6511;49.746;6.094;2022-10-31T15:09:04;17.80;99.90
12887;DHT22;6511;49.746;6.094;2022-10-31T15:11:37;17.70;99.90
12887;DHT22;6511;49.746;6.094;2022-10-31T15:14:24;17.80;99.90
12887;DHT22;6511;49.746;6.094;2022-10-31T15:16:51;17.70;99.90
12887;DHT22;6511;49.746;6.094;2022-10-31T15:19:23;17.70;99.90
12887;DHT22;6511;49.746;6.094;2022-10-31T15:21:51;17.70;99.90
12887;DHT22;6511;49.746;6.094;2022-10-31T15:24:17;17.70;99.90
12887;DHT22;6511;49.746;6.094;2022-10-31T15:26:54;17.60;99.90
12887;DHT22;6511;49.746;6.094;2022-10-31T15:29:25;17.60;99.90
12887;DHT22;6511;49.746;6.094;2022-10-31T15:31:59;17.60;99.90
12887;DHT22;6511;49.746;6.094;2022-10-31T15:34:42;17.60;99.90
12887;DHT22;6511;49.746;6.094;2022-10-31T15:37:14;17.40;99.90
12887;DHT22;6511;49.746;6.094;2022-10-31T15:39:42;17.30;99.90
12887;DHT22;6511;49.746;6.094;2022-10-31T15:42:27;17.20;99.90
12887;DHT22;6511;49.746;6.094;2022-10-31T15:45:02;17.10;99.90
12887;DHT22;6511;49.746;6.094;2022-10-31T15:47:31;17.10;99.90
12887;DHT22;6511;49.746;6.094;2022-10-31T15:49:59;17.10;99.90
12887;DHT22;6511;49.746;6.094;2022-10-31T15:52:36;17.00;99.90
12887;DHT22;6511;49.746;6.094;2022-10-31T15:55:15;17.00;99.90
12887;DHT22;6511;49.746;6.094;2022-10-31T15:57:53;16.90;99.90
12887;DHT22;6511;49.746;6.094;2022-10-31T16:00:29;16.90;99.90
12887;DHT22;6511;49.746;6.094;2022-10-31T16:05:48;16.80;99.90
12887;DHT22;6511;49.746;6.094;2022-10-31T16:10:52;16.60;99.90
12887;DHT22;6511;49.746;6.094;2022-10-31T16:13:29;16.50;99.90
12887;DHT22;6511;49.746;6.094;2022-10-31T16:16:00;16.40;99.90
12887;DHT22;6511;49.746;6.094;2022-10-31T16:18:28;16.30;99.90
12887;DHT22;6511;49.746;6.094;2022-10-31T16:20:55;16.30;99.90
12887;DHT22;6511;49.746;6.094;2022-10-31T16:23:23;16.20;99.90
12887;DHT22;6511;49.746;6.094;2022-10-31T16:25:50;16.10;99.90
12887;DHT22;6511;49.746;6.094;2022-10-31T16:28:22;16.00;99.90
12887;DHT22;6511;49.746;6.094;2022-10-31T16:30:59;16.00;99.90
12887;DHT22;6511;49.746;6.094;2022-10-31T16:33:34;15.90;99.90
12887;DHT22;6511;49.746;6.094;2022-10-31T16:38:57;15.70;99.90
12887;DHT22;6511;49.746;6.094;2022-10-31T16:41:23;15.60;99.90
12887;DHT22;6511;49.746;6.094;2022-10-31T16:43:50;15.50;99.90
12887;DHT22;6511;49.746;6.094;2022-10-31T16:46:24;15.50;99.90
12887;DHT22;6511;49.746;6.094;2022-10-31T16:48:51;15.40;99.90
12887;DHT22;6511;49.746;6.094;2022-10-31T16:51:17;15.30;99.90
12887;DHT22;6511;49.746;6.094;2022-10-31T16:53:42;15.30;99.90
12887;DHT22;6511;49.746;6.094;2022-10-31T16:56:31;15.20;99.90
12887;DHT22;6511;49.746;6.094;2022-10-31T16:59:00;15.10;99.90
12887;DHT22;6511;49.746;6.094;2022-10-31T17:01:26;15.00;99.90
12887;DHT22;6511;49.746;6.094;2022-10-31T17:03:52;15.00;99.90
12887;DHT22;6511;49.746;6.094;2022-10-31T17:06:18;14.90;99.90
12887;DHT22;6511;49.746;6.094;2022-10-31T17:08:43;14.90;99.90
12887;DHT22;6511;49.746;6.094;2022-10-31T17:11:19;14.90;99.90
12887;DHT22;6511;49.746;6.094;2022-10-31T17:13:45;14.80;99.90
12887;DHT22;6511;49.746;6.094;2022-10-31T17:16:12;14.80;99.90
12887;DHT22;6511;49.746;6.094;2022-10-31T17:18:39;14.70;99.90
12887;DHT22;6511;49.746;6.094;2022-10-31T17:21:05;14.70;99.90
12887;DHT22;6511;49.746;6.094;2022-10-31T17:23:31;14.60;99.90
12887;DHT22;6511;49.746;6.094;2022-10-31T17:25:58;14.60;99.90
12887;DHT22;6511;49.746;6.094;2022-10-31T17:28:24;14.60;99.90
12887;DHT22;6511;49.746;6.094;2022-10-31T17:30:54;14.50;99.90
12887;DHT22;6511;49.746;6.094;2022-10-31T17:33:19;14.50;99.90
12887;DHT22;6511;49.746;6.094;2022-10-31T17:35:48;14.50;99.90
12887;DHT22;6511;49.746;6.094;2022-10-31T17:38:14;14.40;99.90
12887;DHT22;6511;49.746;6.094;2022-10-31T17:40:40;14.40;99.90
12887;DHT22;6511;49.746;6.094;2022-10-31T17:43:10;14.30;99.90
12887;DHT22;6511;49.746;6.094;2022-10-31T17:45:39;14.20;99.90
12887;DHT22;6511;49.746;6.094;2022-10-31T17:48:05;14.20;99.90
12887;DHT22;6511;49.746;6.094;2022-10-31T17:50:31;14.10;99.90
12887;DHT22;6511;49.746;6.094;2022-10-31T17:52:58;14.00;99.90
12887;DHT22;6511;49.746;6.094;2022-10-31T17:55:23;14.00;99.90
12887;DHT22;6511;49.746;6.094;2022-10-31T17:57:49;13.90;99.90
12887;DHT22;6511;49.746;6.094;2022-10-31T18:00:17;13.80;99.90
12887;DHT22;6511;49.746;6.094;2022-10-31T18:02:45;13.80;99.90
12887;DHT22;6511;49.746;6.094;2022-10-31T18:05:11;13.70;99.90
12887;DHT22;6511;49.746;6.094;2022-10-31T18:07:37;13.70;99.90
12887;DHT22;6511;49.746;6.094;2022-10-31T18:10:04;13.70;99.90
12887;DHT22;6511;49.746;6.094;2022-10-31T18:12:30;13.60;99.90
12887;DHT22;6511;49.746;6.094;2022-10-31T18:14:57;13.60;99.90
12887;DHT22;6511;49.746;6.094;2022-10-31T18:17:22;13.50;99.90
12887;DHT22;6511;49.746;6.094;2022-10-31T18:19:48;13.50;99.90
12887;DHT22;6511;49.746;6.094;2022-10-31T18:22:14;13.40;99.90
12887;DHT22;6511;49.746;6.094;2022-10-31T18:24:39;13.40;99.90
12887;DHT22;6511;49.746;6.094;2022-10-31T18:27:05;13.40;99.90
12887;DHT22;6511;49.746;6.094;2022-10-31T18:29:31;13.30;99.90
12887;DHT22;6511;49.746;6.094;2022-10-31T18:31:59;13.30;99.90
12887;DHT22;6511;49.746;6.094;2022-10-31T18:34:25;13.30;99.90
12887;DHT22;6511;49.746;6.094;2022-10-31T18:36:51;13.20;99.90
12887;DHT22;6511;49.746;6.094;2022-10-31T18:39:17;13.20;99.90
12887;DHT22;6511;49.746;6.094;2022-10-31T18:41:43;13.10;99.90
12887;DHT22;6511;49.746;6.094;2022-10-31T18:44:08;13.10;99.90
12887;DHT22;6511;49.746;6.094;2022-10-31T18:46:35;13.10;99.90
12887;DHT22;6511;49.746;6.094;2022-10-31T18:49:01;13.00;99.90
12887;DHT22;6511;49.746;6.094;2022-10-31T18:51:27;13.00;99.90
12887;DHT22;6511;49.746;6.094;2022-10-31T18:53:55;12.90;99.90
12887;DHT22;6511;49.746;6.094;2022-10-31T18:56:21;12.90;99.90
12887;DHT22;6511;49.746;6.094;2022-10-31T18:58:47;12.90;99.90
12887;DHT22;6511;49.746;6.094;2022-10-31T19:01:14;12.90;99.90
12887;DHT22;6511;49.746;6.094;2022-10-31T19:03:40;12.90;99.90
12887;DHT22;6511;49.746;6.094;2022-10-31T19:06:08;12.80;99.90
12887;DHT22;6511;49.746;6.094;2022-10-31T19:08:36;12.80;99.90
12887;DHT22;6511;49.746;6.094;2022-10-31T19:11:07;12.70;99.90
12887;DHT22;6511;49.746;6.094;2022-10-31T19:13:34;12.70;99.90
12887;DHT22;6511;49.746;6.094;2022-10-31T19:16:08;12.60;99.90
12887;DHT22;6511;49.746;6.094;2022-10-31T19:18:35;12.60;99.90
12887;DHT22;6511;49.746;6.094;2022-10-31T19:21:09;12.60;99.90
12887;DHT22;6511;49.746;6.094;2022-10-31T19:23:35;12.60;99.90
12887;DHT22;6511;49.746;6.094;2022-10-31T19:26:01;12.60;99.90
12887;DHT22;6511;49.746;6.094;2022-10-31T19:28:34;12.60;99.90
12887;DHT22;6511;49.746;6.094;2022-10-31T19:31:00;12.60;99.90
12887;DHT22;6511;49.746;6.094;2022-10-31T19:33:26;12.60;99.90
12887;DHT22;6511;49.746;6.094;2022-10-31T19:36:03;12.60;99.90
12887;DHT22;6511;49.746;6.094;2022-10-31T19:38:33;12.70;99.90
12887;DHT22;6511;49.746;6.094;2022-10-31T19:41:01;12.70;99.90
12887;DHT22;6511;49.746;6.094;2022-10-31T19:43:27;12.70;99.90
12887;DHT22;6511;49.746;6.094;2022-10-31T19:45:58;12.90;99.90
12887;DHT22;6511;49.746;6.094;2022-10-31T19:48:25;12.90;99.90
12887;DHT22;6511;49.746;6.094;2022-10-31T19:50:52;13.00;99.90
12887;DHT22;6511;49.746;6.094;2022-10-31T19:53:19;13.10;99.90
12887;DHT22;6511;49.746;6.094;2022-10-31T19:55:45;13.20;99.90
12887;DHT22;6511;49.746;6.094;2022-10-31T19:58:14;13.20;99.90
12887;DHT22;6511;49.746;6.094;2022-10-31T20:00:39;13.30;99.90
12887;DHT22;6511;49.746;6.094;2022-10-31T20:03:05;13.30;99.90
12887;DHT22;6511;49.746;6.094;2022-10-31T20:05:31;13.40;99.90
12887;DHT22;6511;49.746;6.094;2022-10-31T20:07:57;13.40;99.90
12887;DHT22;6511;49.746;6.094;2022-10-31T20:10:23;13.50;99.90
12887;DHT22;6511;49.746;6.094;2022-10-31T20:12:49;13.50;99.90
12887;DHT22;6511;49.746;6.094;2022-10-31T20:15:15;13.60;99.90
12887;DHT22;6511;49.746;6.094;2022-10-31T20:17:41;13.60;99.90
12887;DHT22;6511;49.746;6.094;2022-10-31T20:20:06;13.60;99.90
12887;DHT22;6511;49.746;6.094;2022-10-31T20:22:34;13.70;99.90
12887;DHT22;6511;49.746;6.094;2022-10-31T20:25:00;13.70;99.90
12887;DHT22;6511;49.746;6.094;2022-10-31T20:27:25;13.60;99.90
12887;DHT22;6511;49.746;6.094;2022-10-31T20:29:51;13.70;99.90
12887;DHT22;6511;49.746;6.094;2022-10-31T20:32:18;13.70;99.90
12887;DHT22;6511;49.746;6.094;2022-10-31T20:34:49;13.80;99.90
12887;DHT22;6511;49.746;6.094;2022-10-31T20:37:15;13.80;99.90